createdAt,value
2018-04-17T00:00:29.007Z,20.40
2018-04-17T00:02:55.520Z,14.35
2018-04-17T00:05:22.337Z,14.82
2018-04-17T00:07:49.197Z,14.95
2018-04-17T00:10:16.105Z,17.45
2018-04-17T00:12:43.047Z,16.83
2018-04-17T00:17:42.992Z,17.27
2018-04-17T00:20:09.690Z,15.38
2018-04-17T00:22:36.378Z,21.33
2018-04-17T00:25:03.755Z,18.00
2018-04-17T00:27:30.304Z,17.85
2018-04-17T00:29:56.777Z,12.70
2018-04-17T00:32:25.451Z,16.60
2018-04-17T00:34:52.424Z,16.10
2018-04-17T00:37:19.188Z,16.60
2018-04-17T00:39:45.584Z,14.87
2018-04-17T00:42:12.441Z,14.15
2018-04-17T00:44:39.019Z,14.35
2018-04-17T00:47:05.919Z,15.43
2018-04-17T00:49:32.322Z,13.98
2018-04-17T00:51:59.033Z,14.48
2018-04-17T00:54:25.656Z,16.87
2018-04-17T00:56:59.593Z,16.90
2018-04-17T00:59:26.348Z,17.60
2018-04-17T01:01:52.794Z,15.30
2018-04-17T01:04:20.089Z,17.08
2018-04-17T01:06:46.464Z,21.17
2018-04-17T01:09:13.249Z,18.55
2018-04-17T01:11:39.833Z,17.15
2018-04-17T01:14:06.717Z,18.02
2018-04-17T01:16:33.370Z,15.57
2018-04-17T01:19:00.043Z,18.20
2018-04-17T01:21:27.004Z,19.17
2018-04-17T01:23:53.734Z,21.42
2018-04-17T01:26:20.468Z,22.80
2018-04-17T01:28:47.580Z,20.83
2018-04-17T01:31:14.287Z,18.30
2018-04-17T01:33:40.993Z,17.70
2018-04-17T01:36:07.795Z,18.20
2018-04-17T01:38:34.358Z,18.00
2018-04-17T01:41:01.780Z,20.48
2018-04-17T01:43:28.507Z,21.02
2018-04-17T01:45:55.195Z,19.48
2018-04-17T01:48:21.661Z,16.40
2018-04-17T01:50:48.821Z,17.27
2018-04-17T01:53:15.387Z,19.65
2018-04-17T01:55:41.885Z,21.37
2018-04-17T01:58:08.869Z,18.62
2018-04-17T02:00:35.667Z,19.95
2018-04-17T02:03:02.749Z,18.90
2018-04-17T02:05:29.461Z,17.73
2018-04-17T02:07:56.688Z,19.42
2018-04-17T02:10:23.938Z,18.20
2018-04-17T02:12:50.659Z,20.92
2018-04-17T02:15:17.693Z,17.52
2018-04-17T02:17:44.343Z,20.60
2018-04-17T02:20:11.397Z,19.35
2018-04-17T02:22:37.928Z,22.02
2018-04-17T02:25:06.170Z,19.50
2018-04-17T02:27:32.790Z,18.25
2018-04-17T02:29:59.991Z,22.95
2018-04-17T02:32:26.797Z,20.42
2018-04-17T02:34:53.713Z,19.20
2018-04-17T02:37:21.190Z,19.58
2018-04-17T02:39:47.812Z,20.80
2018-04-17T02:42:15.127Z,18.20
2018-04-17T02:44:41.700Z,19.08
2018-04-17T02:47:08.479Z,18.67
2018-04-17T02:49:35.853Z,18.77
2018-04-17T02:52:03.185Z,20.27
2018-04-17T02:54:37.343Z,21.45
2018-04-17T02:57:04.761Z,19.95
2018-04-17T02:59:32.348Z,20.10
2018-04-17T03:01:59.797Z,20.50
2018-04-17T03:04:28.276Z,18.55
2018-04-17T03:06:54.770Z,22.10
2018-04-17T03:09:21.173Z,21.40
2018-04-17T03:11:48.010Z,21.70
2018-04-17T03:14:14.565Z,21.92
2018-04-17T03:16:40.986Z,22.67
2018-04-17T03:19:07.651Z,19.55
2018-04-17T03:21:34.634Z,20.50
2018-04-17T03:24:02.265Z,21.92
2018-04-17T03:26:29.217Z,23.17
2018-04-17T03:28:56.344Z,26.45
2018-04-17T03:31:23.127Z,19.67
2018-04-17T03:33:50.105Z,20.30
2018-04-17T03:36:16.796Z,22.77
2018-04-17T03:38:43.728Z,22.00
2018-04-17T03:41:10.975Z,18.92
2018-04-17T03:43:38.912Z,21.58
2018-04-17T03:46:05.889Z,23.33
2018-04-17T03:48:33.345Z,24.05
2018-04-17T03:51:00.137Z,21.52
2018-04-17T03:53:26.637Z,21.80
2018-04-17T03:55:53.144Z,18.70
2018-04-17T03:58:19.764Z,19.98
2018-04-17T04:00:46.608Z,23.12
2018-04-17T04:03:13.254Z,18.60
2018-04-17T04:05:40.245Z,19.42
2018-04-17T04:08:06.983Z,21.27
2018-04-17T04:10:33.496Z,17.73
2018-04-17T04:13:00.420Z,20.25
2018-04-17T04:15:27.489Z,18.70
2018-04-17T04:18:06.401Z,17.42
2018-04-17T04:20:47.066Z,17.75
2018-04-17T04:23:27.128Z,19.45
2018-04-17T04:26:05.985Z,18.05
2018-04-17T04:28:32.782Z,19.40
2018-04-17T04:30:59.917Z,19.58
2018-04-17T04:33:27.148Z,19.02
2018-04-17T04:35:53.759Z,19.10
2018-04-17T04:38:20.297Z,16.73
2018-04-17T04:40:47.121Z,17.08
2018-04-17T04:43:13.941Z,16.23
2018-04-17T04:45:41.829Z,16.73
2018-04-17T04:48:08.645Z,16.95
2018-04-17T04:50:35.118Z,16.30
2018-04-17T04:53:01.791Z,17.37
2018-04-17T04:55:28.577Z,19.40
2018-04-17T04:57:55.111Z,16.02
2018-04-17T05:00:22.004Z,18.23
2018-04-17T05:02:48.828Z,18.23
2018-04-17T05:05:15.793Z,16.48
2018-04-17T05:07:43.173Z,16.02
2018-04-17T05:10:10.187Z,17.75
2018-04-17T05:12:36.740Z,17.33
2018-04-17T05:15:03.927Z,18.27
2018-04-17T05:17:30.440Z,14.13
2018-04-17T05:19:56.902Z,16.35
2018-04-17T05:22:23.880Z,14.13
2018-04-17T05:24:50.849Z,16.62
2018-04-17T05:27:18.115Z,17.23
2018-04-17T05:29:45.012Z,19.42
2018-04-17T05:32:12.053Z,17.92
2018-04-17T05:34:38.749Z,16.80
2018-04-17T05:37:05.366Z,16.50
2018-04-17T05:39:32.297Z,14.75
2018-04-17T05:41:58.938Z,16.70
2018-04-17T05:44:26.181Z,16.30
2018-04-17T05:46:53.045Z,14.57
2018-04-17T05:49:19.674Z,15.43
2018-04-17T05:51:47.505Z,18.57
2018-04-17T05:54:14.444Z,23.10
2018-04-17T05:56:40.976Z,15.40
2018-04-17T05:59:08.701Z,16.52
2018-04-17T06:01:35.745Z,17.65
2018-04-17T06:04:02.650Z,19.77
2018-04-17T06:06:29.407Z,16.70
2018-04-17T06:08:56.383Z,17.40
2018-04-17T06:11:23.770Z,16.87
2018-04-17T06:13:50.506Z,16.13
2018-04-17T06:16:17.311Z,19.07
2018-04-17T06:18:44.919Z,20.17
2018-04-17T06:21:11.701Z,24.23
2018-04-17T06:23:38.443Z,16.33
2018-04-17T06:26:05.842Z,20.40
2018-04-17T06:28:32.772Z,20.40
2018-04-17T06:30:59.411Z,16.30
2018-04-17T06:33:26.285Z,21.63
2018-04-17T06:35:53.138Z,13.90
2018-04-17T06:38:20.059Z,18.87
2018-04-17T06:40:46.654Z,14.93
2018-04-17T06:43:13.456Z,16.10
2018-04-17T06:45:40.225Z,19.60
2018-04-17T06:48:06.702Z,17.37
2018-04-17T06:50:33.271Z,16.30
2018-04-17T06:53:00.333Z,15.73
2018-04-17T06:55:26.865Z,15.77
2018-04-17T06:57:53.671Z,18.83
2018-04-17T07:00:20.177Z,20.10
2018-04-17T07:02:46.744Z,16.93
2018-04-17T07:05:13.202Z,16.00
2018-04-17T07:07:40.332Z,13.00
2018-04-17T07:10:07.028Z,15.73
2018-04-17T07:12:33.558Z,19.10
2018-04-17T07:15:00.379Z,20.23
2018-04-17T07:17:27.277Z,16.97
2018-04-17T07:19:53.933Z,15.20
2018-04-17T07:22:21.229Z,18.10
2018-04-17T07:24:48.903Z,16.87
2018-04-17T07:27:15.765Z,19.70
2018-04-17T07:29:42.863Z,16.43
2018-04-17T07:32:09.578Z,23.63
2018-04-17T07:34:36.137Z,23.27
2018-04-17T07:37:03.409Z,20.70
2018-04-17T07:39:29.860Z,19.23
2018-04-17T07:41:56.438Z,22.27
2018-04-17T07:44:23.291Z,22.40
2018-04-17T07:47:02.439Z,23.37
2018-04-17T07:49:29.177Z,18.87
2018-04-17T07:51:56.073Z,18.73
2018-04-17T07:54:22.901Z,23.33
2018-04-17T07:56:49.638Z,20.80
2018-04-17T07:59:16.440Z,23.30
2018-04-17T08:01:43.657Z,20.77
2018-04-17T08:04:10.630Z,18.13
2018-04-17T08:06:37.488Z,21.07
2018-04-17T08:09:04.141Z,21.07
2018-04-17T08:11:30.965Z,24.80
2018-04-17T08:13:57.729Z,26.63
2018-04-17T08:16:24.639Z,20.27
2018-04-17T08:18:51.453Z,24.10
2018-04-17T08:21:18.000Z,21.80
2018-04-17T08:23:44.727Z,19.90
2018-04-17T08:26:11.174Z,28.53
2018-04-17T08:28:37.634Z,20.27
2018-04-17T08:31:05.198Z,26.60
2018-04-17T08:33:32.094Z,23.27
2018-04-17T08:35:58.783Z,25.97
2018-04-17T08:38:25.481Z,21.07
2018-04-17T08:40:52.132Z,25.20
2018-04-17T08:43:18.925Z,23.17
2018-04-17T08:45:46.444Z,21.77
2018-04-17T08:48:13.164Z,18.27
2018-04-17T08:50:40.736Z,19.97
2018-04-17T08:53:07.961Z,22.87
2018-04-17T08:55:35.006Z,21.23
2018-04-17T08:58:01.510Z,20.50
2018-04-17T09:00:28.398Z,20.23
2018-04-17T09:02:55.436Z,22.47
2018-04-17T09:05:22.398Z,18.63
2018-04-17T09:07:49.293Z,13.77
2018-04-17T09:10:17.065Z,14.90
2018-04-17T09:12:44.494Z,15.57
2018-04-17T09:15:11.253Z,16.37
2018-04-17T09:17:38.220Z,18.53
2018-04-17T09:20:05.765Z,13.17
2018-04-17T09:22:32.292Z,17.87
2018-04-17T09:24:59.492Z,16.63
2018-04-17T09:27:26.465Z,16.93
2018-04-17T09:29:54.085Z,17.87
2018-04-17T09:32:20.933Z,12.67
2018-04-17T09:34:48.023Z,14.37
2018-04-17T09:37:14.945Z,17.67
2018-04-17T09:39:41.568Z,16.57
2018-04-17T09:42:08.225Z,14.23
2018-04-17T09:44:34.865Z,20.50
2018-04-17T09:47:01.783Z,12.53
2018-04-17T09:49:29.068Z,11.80
2018-04-17T09:51:55.864Z,14.73
2018-04-17T09:54:22.866Z,17.17
2018-04-17T09:56:49.671Z,12.87
2018-04-17T09:59:17.180Z,11.47
2018-04-17T10:01:44.651Z,16.90
2018-04-17T10:04:11.493Z,13.00
2018-04-17T10:06:37.991Z,13.70
2018-04-17T10:09:06.015Z,14.60
2018-04-17T10:11:32.672Z,14.83
2018-04-17T10:13:59.118Z,15.10
2018-04-17T10:16:25.793Z,17.30
2018-04-17T10:18:52.665Z,11.27
2018-04-17T10:21:19.219Z,13.13
2018-04-17T10:23:46.028Z,12.03
2018-04-17T10:26:12.610Z,13.40
2018-04-17T10:28:39.178Z,13.73
2018-04-17T10:31:05.816Z,10.00
2018-04-17T10:33:33.272Z,12.83
2018-04-17T10:36:00.424Z,12.07
2018-04-17T10:38:27.302Z,18.23
2018-04-17T10:40:54.127Z,12.17
2018-04-17T10:43:21.510Z,11.40
2018-04-17T10:45:48.336Z,13.23
2018-04-17T10:48:15.724Z,14.27
2018-04-17T10:50:42.616Z,13.70
2018-04-17T10:53:09.662Z,8.80
2018-04-17T10:55:36.799Z,12.63
2018-04-17T10:58:04.073Z,22.83
2018-04-17T11:00:31.326Z,15.27
2018-04-17T11:02:57.936Z,12.20
2018-04-17T11:05:24.939Z,8.30
2018-04-17T11:07:51.627Z,12.27
2018-04-17T11:10:18.233Z,14.40
2018-04-17T11:12:45.041Z,11.10
2018-04-17T11:15:11.622Z,12.13
2018-04-17T11:17:38.493Z,12.03
2018-04-17T11:20:05.001Z,13.13
2018-04-17T11:22:31.570Z,12.23
2018-04-17T11:24:58.261Z,19.43
2018-04-17T11:27:25.444Z,10.30
2018-04-17T11:29:59.368Z,14.90
2018-04-17T11:32:26.756Z,10.83
2018-04-17T11:34:53.541Z,9.90
2018-04-17T11:37:20.561Z,10.20
2018-04-17T11:39:48.106Z,10.30
2018-04-17T11:42:15.111Z,11.93
2018-04-17T11:44:42.093Z,18.33
2018-04-17T11:47:08.764Z,9.00
2018-04-17T11:49:35.522Z,13.17
2018-04-17T11:52:02.412Z,13.80
2018-04-17T11:54:29.548Z,10.27
2018-04-17T11:56:56.571Z,16.13
2018-04-17T11:59:23.679Z,11.17
2018-04-17T12:01:50.167Z,15.80
2018-04-17T12:04:16.643Z,11.97
2018-04-17T12:06:44.091Z,14.43
2018-04-17T12:09:10.981Z,16.07
2018-04-17T12:11:38.130Z,12.57
2018-04-17T12:14:05.045Z,13.90
2018-04-17T12:16:32.636Z,12.27
2018-04-17T12:18:59.447Z,19.57
2018-04-17T12:21:26.377Z,13.43
2018-04-17T12:23:53.077Z,11.03
2018-04-17T12:26:19.846Z,14.23
2018-04-17T12:28:46.636Z,10.53
2018-04-17T12:31:13.305Z,12.77
2018-04-17T12:33:41.231Z,11.77
2018-04-17T12:36:08.721Z,15.97
2018-04-17T12:38:36.217Z,13.93
2018-04-17T12:41:02.627Z,12.33
2018-04-17T12:43:29.298Z,13.37
2018-04-17T12:45:56.129Z,12.03
2018-04-17T12:48:23.030Z,14.17
2018-04-17T12:50:49.978Z,18.70
2018-04-17T12:53:17.320Z,14.47
2018-04-17T12:55:44.649Z,11.63
2018-04-17T12:58:11.277Z,13.97
2018-04-17T13:00:38.114Z,13.83
2018-04-17T13:03:04.674Z,12.37
2018-04-17T13:05:31.236Z,18.30
2018-04-17T13:07:58.263Z,14.57
2018-04-17T13:10:25.704Z,12.63
2018-04-17T13:12:52.529Z,12.97
2018-04-17T13:15:19.504Z,14.00
2018-04-17T13:17:46.360Z,15.10
2018-04-17T13:20:14.844Z,10.20
2018-04-17T13:22:41.504Z,13.70
2018-04-17T13:25:08.777Z,10.93
2018-04-17T13:27:35.509Z,13.27
2018-04-17T13:30:02.138Z,17.90
2018-04-17T13:32:30.756Z,12.97
2018-04-17T13:34:57.672Z,13.13
2018-04-17T13:37:24.313Z,12.13
2018-04-17T13:39:51.412Z,16.43
2018-04-17T13:42:18.940Z,12.97
2018-04-17T13:44:45.632Z,15.70
2018-04-17T13:47:12.189Z,12.07
2018-04-17T13:49:39.384Z,13.03
2018-04-17T13:52:05.927Z,13.53
2018-04-17T13:54:32.539Z,11.13
2018-04-17T13:57:00.348Z,15.77
2018-04-17T13:59:27.623Z,13.37
2018-04-17T14:01:54.210Z,12.57
2018-04-17T14:04:20.902Z,13.10
2018-04-17T14:06:47.814Z,14.80
2018-04-17T14:09:14.612Z,12.97
2018-04-17T14:11:41.905Z,12.33
2018-04-17T14:14:09.093Z,13.27
2018-04-17T14:16:36.883Z,13.27
2018-04-17T14:19:04.027Z,13.63
2018-04-17T14:21:31.336Z,14.60
2018-04-17T14:23:58.692Z,13.37
2018-04-17T14:26:26.504Z,10.37
2018-04-17T14:28:53.574Z,13.90
2018-04-17T14:31:20.337Z,14.17
2018-04-17T14:33:47.003Z,14.00
2018-04-17T14:36:13.677Z,11.60
2018-04-17T14:38:40.932Z,15.23
2018-04-17T14:41:07.438Z,11.37
2018-04-17T14:43:35.183Z,16.57
2018-04-17T14:46:01.804Z,17.23
2018-04-17T14:48:28.440Z,12.83
2018-04-17T14:50:55.462Z,18.03
2018-04-17T14:53:22.080Z,11.50
2018-04-17T14:55:49.728Z,13.03
2018-04-17T14:58:16.292Z,11.40
2018-04-17T15:00:43.442Z,13.53
2018-04-17T15:03:10.614Z,15.53
2018-04-17T15:05:37.117Z,14.37
2018-04-17T15:08:04.290Z,19.83
2018-04-17T15:10:31.158Z,11.50
2018-04-17T15:12:58.457Z,10.73
2018-04-17T15:15:24.850Z,12.73
2018-04-17T15:17:51.676Z,12.33
2018-04-17T15:20:18.261Z,15.90
2018-04-17T15:22:44.686Z,14.50
2018-04-17T15:25:11.513Z,16.00
2018-04-17T15:27:38.329Z,15.77
2018-04-17T15:30:05.412Z,14.00
2018-04-17T15:32:32.333Z,17.13
2018-04-17T15:34:59.777Z,17.13
2018-04-17T15:37:26.573Z,15.30
2018-04-17T15:39:53.944Z,12.87
2018-04-17T15:42:21.080Z,12.13
2018-04-17T15:44:48.274Z,15.80
2018-04-17T15:47:14.789Z,11.53
2018-04-17T15:49:41.754Z,16.53
2018-04-17T15:52:08.918Z,14.10
2018-04-17T15:54:35.787Z,12.93
2018-04-17T15:57:02.438Z,18.37
2018-04-17T15:59:29.188Z,15.20
2018-04-17T16:01:55.928Z,16.70
2018-04-17T16:04:23.548Z,13.80
2018-04-17T16:06:50.507Z,15.23
2018-04-17T16:09:17.228Z,16.67
2018-04-17T16:11:45.028Z,9.37
2018-04-17T16:14:12.244Z,11.43
2018-04-17T16:16:39.116Z,14.10
2018-04-17T16:19:06.136Z,11.33
2018-04-17T16:21:32.580Z,10.53
2018-04-17T16:23:59.288Z,12.37
2018-04-17T16:26:25.935Z,11.23
2018-04-17T16:28:52.921Z,12.67
2018-04-17T16:31:19.832Z,8.83
2018-04-17T16:33:47.139Z,15.53
2018-04-17T16:36:14.051Z,12.87
2018-04-17T16:38:40.721Z,15.50
2018-04-17T16:41:07.790Z,21.07
2018-04-17T16:43:34.516Z,18.07
2018-04-17T16:46:01.123Z,19.60
2018-04-17T16:48:28.499Z,21.60
2018-04-17T16:50:55.280Z,27.33
2018-04-17T16:53:22.716Z,18.20
2018-04-17T16:55:49.480Z,23.67
2018-04-17T16:58:16.320Z,18.60
2018-04-17T17:00:43.797Z,17.33
2018-04-17T17:03:10.770Z,15.10
2018-04-17T17:05:37.589Z,19.63
2018-04-17T17:08:04.050Z,21.33
2018-04-17T17:10:31.641Z,15.73
2018-04-17T17:13:05.280Z,18.40
2018-04-17T17:15:32.195Z,18.20
2018-04-17T17:17:58.778Z,17.50
2018-04-17T17:20:25.698Z,19.93
2018-04-17T17:22:52.335Z,20.63
2018-04-17T17:25:18.956Z,18.33
2018-04-17T17:27:45.493Z,19.80
2018-04-17T17:30:12.646Z,21.17
2018-04-17T17:32:39.253Z,22.23
2018-04-17T17:35:06.456Z,28.03
2018-04-17T17:37:33.329Z,18.47
2018-04-17T17:39:59.932Z,19.23
2018-04-17T17:42:26.646Z,18.30
2018-04-17T17:44:53.841Z,22.17
2018-04-17T17:47:21.049Z,18.63
2018-04-17T17:49:47.818Z,18.63
2018-04-17T17:52:14.598Z,25.40
2018-04-17T17:54:41.459Z,22.20
2018-04-17T17:57:08.009Z,22.57
2018-04-17T17:59:34.980Z,21.67
2018-04-17T18:02:02.079Z,21.07
2018-04-17T18:04:29.467Z,21.97
2018-04-17T18:06:56.275Z,19.90
2018-04-17T18:11:49.077Z,21.70
2018-04-17T18:14:15.568Z,22.47
2018-04-17T18:16:42.092Z,22.73
2018-04-17T18:19:10.544Z,22.83
2018-04-17T18:21:37.139Z,17.20
2018-04-17T18:24:03.826Z,22.30
2018-04-17T18:26:30.843Z,18.87
2018-04-17T18:28:57.994Z,16.57
2018-04-17T18:31:24.576Z,15.90
2018-04-17T18:33:51.217Z,15.13
2018-04-17T18:36:17.988Z,14.70
2018-04-17T18:38:44.621Z,19.87
2018-04-17T18:41:11.325Z,20.17
2018-04-17T18:43:38.260Z,17.87
2018-04-17T18:46:04.910Z,39.37
2018-04-17T18:48:31.800Z,43.37
2018-04-17T18:50:59.260Z,48.93
2018-04-17T18:53:26.112Z,35.43
2018-04-17T18:55:53.289Z,36.30
2018-04-17T18:58:21.209Z,26.63
2018-04-17T19:00:47.930Z,18.77
2018-04-17T19:03:15.619Z,16.90
2018-04-17T19:05:42.345Z,13.00
2018-04-17T19:08:11.241Z,19.00
2018-04-17T19:10:39.787Z,12.67
2018-04-17T19:13:06.381Z,13.87
2018-04-17T19:15:33.584Z,17.37
2018-04-17T19:18:00.654Z,15.23
2018-04-17T19:20:27.484Z,16.80
2018-04-17T19:22:54.120Z,15.53
2018-04-17T19:25:20.913Z,12.97
2018-04-17T19:27:47.511Z,16.77
2018-04-17T19:30:14.006Z,22.10
2018-04-17T19:32:40.997Z,19.93
2018-04-17T19:35:07.694Z,21.73
2018-04-17T19:37:35.262Z,19.60
2018-04-17T19:40:02.055Z,20.37
2018-04-17T19:42:29.925Z,22.03
2018-04-17T19:44:56.519Z,21.93
2018-04-17T19:47:23.587Z,20.50
2018-04-17T19:49:50.382Z,20.40
2018-04-17T19:52:17.004Z,15.37
2018-04-17T19:54:43.539Z,15.97
2018-04-17T19:57:10.327Z,19.47
2018-04-17T19:59:37.213Z,14.33
2018-04-17T20:02:04.107Z,13.67
2018-04-17T20:04:31.952Z,18.73
2018-04-17T20:06:59.359Z,18.80
2018-04-17T20:09:26.061Z,17.47
2018-04-17T20:11:52.686Z,17.50
2018-04-17T20:14:19.417Z,16.10
2018-04-17T20:16:45.970Z,22.33
2018-04-17T20:19:13.488Z,18.73
2018-04-17T20:21:40.407Z,16.57
2018-04-17T20:24:07.140Z,17.13
2018-04-17T20:26:33.945Z,16.03
2018-04-17T20:29:01.166Z,18.77
2018-04-17T20:31:28.789Z,19.43
2018-04-17T20:33:56.988Z,20.80
2018-04-17T20:36:23.695Z,19.93
2018-04-17T20:38:50.461Z,17.53
2018-04-17T20:41:16.871Z,16.97
2018-04-17T20:43:43.643Z,19.03
2018-04-17T20:46:10.615Z,16.13
2018-04-17T20:48:37.270Z,18.17
2018-04-17T20:51:04.645Z,18.83
2018-04-17T20:53:31.771Z,15.57
2018-04-17T20:55:58.602Z,14.77
2018-04-17T20:58:25.206Z,15.03
2018-04-17T21:00:52.818Z,15.10
2018-04-17T21:03:20.018Z,14.20
2018-04-17T21:05:46.832Z,15.70
2018-04-17T21:08:13.832Z,13.80
2018-04-17T21:10:40.507Z,15.50
2018-04-17T21:13:07.014Z,13.90
2018-04-17T21:15:33.868Z,15.30
2018-04-17T21:18:00.898Z,18.43
2018-04-17T21:20:27.707Z,17.30
2018-04-17T21:22:54.564Z,16.97
2018-04-17T21:25:21.877Z,16.53
2018-04-17T21:27:48.876Z,14.37
2018-04-17T21:30:15.401Z,14.50
2018-04-17T21:32:42.884Z,21.10
2018-04-17T21:35:09.781Z,15.73
2018-04-17T21:37:36.327Z,18.17
2018-04-17T21:40:03.576Z,16.03
2018-04-17T21:42:30.976Z,18.03
2018-04-17T21:44:58.347Z,17.33
2018-04-17T21:47:25.842Z,13.20
2018-04-17T21:49:54.760Z,14.23
2018-04-17T21:52:21.889Z,14.80
2018-04-17T21:54:48.684Z,15.07
2018-04-17T21:57:15.425Z,15.53
2018-04-17T21:59:42.204Z,14.00
2018-04-17T22:02:08.790Z,18.30
2018-04-17T22:04:36.322Z,12.43
2018-04-17T22:07:03.320Z,13.90
2018-04-17T22:09:30.663Z,17.73
2018-04-17T22:11:57.527Z,17.73
2018-04-17T22:14:24.889Z,15.20
2018-04-17T22:16:51.585Z,12.90
2018-04-17T22:19:18.333Z,19.23
2018-04-17T22:21:45.340Z,19.30
2018-04-17T22:24:12.047Z,14.33
2018-04-17T22:26:39.825Z,17.43
2018-04-17T22:29:06.967Z,14.97
2018-04-17T22:31:33.916Z,13.80
2018-04-17T22:34:01.040Z,14.07
2018-04-17T22:36:27.917Z,13.83
2018-04-17T22:38:55.444Z,17.00
2018-04-17T22:41:22.073Z,15.47
2018-04-17T22:43:48.628Z,17.63
2018-04-17T22:46:15.452Z,15.67
2018-04-17T22:48:42.689Z,15.33
2018-04-17T22:51:09.425Z,16.70
2018-04-17T22:53:36.659Z,18.67
2018-04-17T22:56:04.805Z,18.00
2018-04-17T22:58:33.352Z,17.73
2018-04-17T23:01:00.286Z,17.63
2018-04-17T23:03:26.929Z,15.13
2018-04-17T23:05:54.365Z,16.23
2018-04-17T23:08:21.256Z,16.13
2018-04-17T23:10:48.427Z,15.20
2018-04-17T23:13:14.950Z,16.13
2018-04-17T23:15:42.906Z,13.95
2018-04-17T23:18:09.746Z,13.57
2018-04-17T23:20:36.564Z,16.17
2018-04-17T23:23:03.685Z,15.13
2018-04-17T23:25:32.210Z,14.50
2018-04-17T23:27:58.824Z,16.60
2018-04-17T23:30:26.555Z,13.70
2018-04-17T23:32:57.012Z,16.00
2018-04-17T23:35:24.344Z,12.33
2018-04-17T23:37:51.871Z,16.13
2018-04-17T23:40:18.457Z,15.67
2018-04-17T23:42:45.120Z,14.87
2018-04-17T23:45:11.609Z,14.37
2018-04-17T23:47:38.296Z,15.45
2018-04-17T23:50:04.881Z,15.67
2018-04-17T23:52:31.709Z,16.80
2018-04-17T23:54:58.456Z,15.60
2018-04-17T23:57:25.281Z,17.40
2018-04-17T23:59:52.544Z,18.73
